createdAt,value
2022-10-09T00:02:42.808Z,7.15
2022-10-09T00:05:28.661Z,10.02
2022-10-09T00:08:14.409Z,7.07
2022-10-09T00:11:00.285Z,13.02
2022-10-09T00:13:46.445Z,9.13
2022-10-09T00:16:33.064Z,9.88
2022-10-09T00:19:18.817Z,11.18
2022-10-09T00:22:04.503Z,13.85
2022-10-09T00:24:50.248Z,22.08
2022-10-09T00:27:36.094Z,9.35
2022-10-09T00:30:22.138Z,10.15
2022-10-09T00:33:08.071Z,9.02
2022-10-09T00:35:53.759Z,17.48
2022-10-09T00:38:39.771Z,9.63
2022-10-09T00:41:29.099Z,13.82
2022-10-09T00:44:49.147Z,26.38
2022-10-09T00:47:41.869Z,19.55
2022-10-09T00:50:44.733Z,16.80
2022-10-09T00:53:31.096Z,23.10
2022-10-09T00:56:17.194Z,26.52
2022-10-09T00:59:03.759Z,64.15
2022-10-09T01:01:50.554Z,65.45
2022-10-09T01:04:37.801Z,47.47
2022-10-09T01:07:31.865Z,35.17
2022-10-09T01:10:46.729Z,23.27
2022-10-09T01:13:51.175Z,21.70
2022-10-09T01:16:46.856Z,17.63
2022-10-09T01:19:47.839Z,15.32
2022-10-09T01:22:51.371Z,16.67
2022-10-09T01:26:00.667Z,15.63
2022-10-09T01:28:57.164Z,12.80
2022-10-09T01:31:47.953Z,20.45
2022-10-09T01:34:36.251Z,17.42
2022-10-09T01:37:24.596Z,15.27
2022-10-09T01:40:14.645Z,22.15
2022-10-09T01:43:02.831Z,16.13
2022-10-09T01:45:50.315Z,16.73
2022-10-09T01:48:38.617Z,11.23
2022-10-09T01:51:31.239Z,11.98
2022-10-09T01:54:24.269Z,14.25
2022-10-09T01:57:13.888Z,12.68
2022-10-09T02:00:06.723Z,12.15
2022-10-09T02:02:59.763Z,13.27
2022-10-09T02:05:51.403Z,18.15
2022-10-09T02:08:40.459Z,10.57
2022-10-09T02:11:32.315Z,9.57
2022-10-09T02:14:19.662Z,8.00
2022-10-09T02:17:13.316Z,12.98
2022-10-09T02:20:10.459Z,10.32
2022-10-09T02:22:58.400Z,12.90
2022-10-09T02:25:46.638Z,12.82
2022-10-09T02:28:34.751Z,10.82
2022-10-09T02:31:29.176Z,14.85
2022-10-09T02:34:21.232Z,12.95
2022-10-09T02:37:09.123Z,10.40
2022-10-09T02:39:56.591Z,18.45
2022-10-09T02:42:46.370Z,13.05
2022-10-09T02:45:36.054Z,10.05
2022-10-09T02:48:24.782Z,8.00
2022-10-09T02:51:12.458Z,9.73
2022-10-09T02:54:03.333Z,8.15
2022-10-09T02:56:52.312Z,10.95
2022-10-09T02:59:39.354Z,11.45
2022-10-09T03:02:27.264Z,6.88
2022-10-09T03:05:15.227Z,7.07
2022-10-09T03:08:03.521Z,14.93
2022-10-09T03:10:51.446Z,15.30
2022-10-09T03:13:40.450Z,11.55
2022-10-09T03:16:28.627Z,14.48
2022-10-09T03:19:15.538Z,18.27
2022-10-09T03:22:02.381Z,14.77
2022-10-09T03:24:49.451Z,13.52
2022-10-09T03:27:37.212Z,8.35
2022-10-09T03:30:24.907Z,11.82
2022-10-09T03:33:12.254Z,14.68
2022-10-09T03:35:59.210Z,11.98
2022-10-09T03:38:46.401Z,8.13
2022-10-09T03:41:33.277Z,9.65
2022-10-09T03:44:20.440Z,7.90
2022-10-09T03:47:07.512Z,11.63
2022-10-09T03:49:56.450Z,18.33
2022-10-09T03:52:44.733Z,11.52
2022-10-09T03:55:32.436Z,7.68
2022-10-09T03:58:20.297Z,14.85
2022-10-09T04:01:08.582Z,16.63
2022-10-09T04:03:55.450Z,11.05
2022-10-09T04:06:42.592Z,13.73
2022-10-09T04:09:30.216Z,10.00
2022-10-09T04:12:19.936Z,9.13
2022-10-09T04:15:07.992Z,13.60
2022-10-09T04:17:56.800Z,14.48
2022-10-09T04:20:51.763Z,15.50
2022-10-09T04:23:38.991Z,11.07
2022-10-09T04:26:26.389Z,11.70
2022-10-09T04:29:14.282Z,8.88
2022-10-09T04:32:01.983Z,11.23
2022-10-09T04:34:49.401Z,18.33
2022-10-09T04:37:37.235Z,18.05
2022-10-09T04:40:24.883Z,17.27
2022-10-09T04:43:11.916Z,10.35
2022-10-09T04:46:04.816Z,16.20
2022-10-09T04:48:51.215Z,11.40
2022-10-09T04:51:38.049Z,20.42
2022-10-09T04:54:25.603Z,20.73
2022-10-09T04:57:12.474Z,15.10
2022-10-09T04:59:59.666Z,19.75
2022-10-09T05:02:47.013Z,17.98
2022-10-09T05:05:34.365Z,16.52
2022-10-09T05:08:22.112Z,10.15
2022-10-09T05:11:12.493Z,21.00
2022-10-09T05:14:00.656Z,14.02
2022-10-09T05:17:12.556Z,12.10
2022-10-09T05:19:59.729Z,11.02
2022-10-09T05:22:48.058Z,11.98
2022-10-09T05:25:34.901Z,11.75
2022-10-09T05:28:21.734Z,9.15
2022-10-09T05:31:09.617Z,13.68
2022-10-09T05:33:59.986Z,17.60
2022-10-09T05:36:47.668Z,27.92
2022-10-09T05:39:36.457Z,19.27
2022-10-09T05:42:22.760Z,14.80
2022-10-09T05:45:09.774Z,14.57
2022-10-09T05:47:57.209Z,15.55
2022-10-09T05:50:48.996Z,21.92
2022-10-09T05:53:43.523Z,20.10
2022-10-09T05:56:36.643Z,14.82
2022-10-09T06:02:17.487Z,13.65
2022-10-09T06:05:05.574Z,13.57
2022-10-09T06:07:55.649Z,14.75
2022-10-09T06:10:42.810Z,13.43
2022-10-09T06:13:29.525Z,11.55
2022-10-09T06:16:17.989Z,13.13
2022-10-09T06:19:06.809Z,12.80
2022-10-09T06:21:54.454Z,15.63
2022-10-09T06:24:41.062Z,17.77
2022-10-09T06:27:28.648Z,18.65
2022-10-09T06:30:15.100Z,25.38
2022-10-09T06:33:07.040Z,16.45
2022-10-09T06:36:05.598Z,17.45
2022-10-09T06:38:56.631Z,20.83
2022-10-09T06:41:44.094Z,18.13
2022-10-09T06:44:46.857Z,15.95
2022-10-09T06:47:34.595Z,10.75
2022-10-09T06:50:21.146Z,12.75
2022-10-09T06:53:08.104Z,10.77
2022-10-09T06:55:58.071Z,11.70
2022-10-09T06:58:45.169Z,18.42
2022-10-09T07:01:32.312Z,8.20
2022-10-09T07:04:18.924Z,11.63
2022-10-09T07:07:05.018Z,12.00
2022-10-09T07:09:52.839Z,10.75
2022-10-09T07:12:39.272Z,18.70
2022-10-09T07:15:25.339Z,21.95
2022-10-09T07:18:11.582Z,17.65
2022-10-09T07:20:57.555Z,48.95
2022-10-09T07:23:43.610Z,48.42
2022-10-09T07:26:31.510Z,76.30
2022-10-09T07:29:18.920Z,55.20
2022-10-09T07:32:08.266Z,30.13
2022-10-09T07:34:56.198Z,34.50
2022-10-09T07:37:41.912Z,24.25
2022-10-09T07:40:27.620Z,24.90
2022-10-09T07:43:13.431Z,11.45
2022-10-09T07:46:06.266Z,53.78
2022-10-09T07:48:52.379Z,51.15
2022-10-09T07:51:51.186Z,57.08
2022-10-09T07:55:14.130Z,38.92
2022-10-09T07:58:00.014Z,23.80
2022-10-09T08:00:45.831Z,29.17
2022-10-09T08:03:31.518Z,17.02
2022-10-09T08:06:18.346Z,16.23
2022-10-09T08:09:05.569Z,17.27
2022-10-09T08:16:35.393Z,18.45
2022-10-09T08:19:21.187Z,11.77
2022-10-09T08:22:07.476Z,10.18
2022-10-09T08:24:53.446Z,12.60
2022-10-09T08:27:39.190Z,20.20
2022-10-09T08:30:25.071Z,19.08
2022-10-09T08:33:12.407Z,13.65
2022-10-09T08:39:41.916Z,16.63
2022-10-09T08:42:59.948Z,14.82
2022-10-09T08:45:47.421Z,11.80
2022-10-09T08:48:36.116Z,19.75
2022-10-09T08:51:27.756Z,17.75
2022-10-09T08:54:27.735Z,18.35
2022-10-09T08:57:16.910Z,23.40
2022-10-09T09:00:02.793Z,22.52
2022-10-09T09:03:19.958Z,20.27
2022-10-09T09:06:43.115Z,24.42
2022-10-09T09:10:20.349Z,19.65
2022-10-09T09:13:35.010Z,61.17
2022-10-09T09:17:18.080Z,29.27
2022-10-09T09:20:16.670Z,21.85
2022-10-09T09:23:13.651Z,23.40
2022-10-09T09:26:19.917Z,19.95
2022-10-09T09:29:05.980Z,21.75
2022-10-09T09:31:55.587Z,18.83
2022-10-09T09:34:41.911Z,17.55
2022-10-09T09:37:27.837Z,23.20
2022-10-09T09:44:00.253Z,16.58
2022-10-09T09:46:47.455Z,16.15
2022-10-09T09:49:33.477Z,20.55
2022-10-09T09:52:19.620Z,21.77
2022-10-09T09:55:06.361Z,21.25
2022-10-09T09:57:52.638Z,24.75
2022-10-09T10:00:38.867Z,19.25
2022-10-09T10:03:26.723Z,16.98
2022-10-09T10:06:59.484Z,14.68
2022-10-09T10:09:45.651Z,17.73
2022-10-09T10:12:31.800Z,22.65
2022-10-09T10:19:55.795Z,27.67
2022-10-09T10:23:30.813Z,24.13
2022-10-09T10:26:55.973Z,19.27
2022-10-09T10:33:59.222Z,24.80
2022-10-09T10:36:46.969Z,18.02
2022-10-09T10:39:47.072Z,14.38
2022-10-09T10:43:08.169Z,23.80
2022-10-09T10:46:06.688Z,19.63
2022-10-09T10:48:53.392Z,21.42
2022-10-09T10:52:00.971Z,19.75
2022-10-09T10:55:29.372Z,21.27
2022-10-09T10:58:31.162Z,18.33
2022-10-09T11:01:56.757Z,17.23
2022-10-09T11:04:46.379Z,15.43
2022-10-09T11:07:46.348Z,16.20
2022-10-09T11:11:07.791Z,40.92
2022-10-09T11:13:56.226Z,30.30
2022-10-09T11:17:25.093Z,20.52
2022-10-09T11:20:30.585Z,28.90
2022-10-09T11:23:50.465Z,15.52
2022-10-09T11:27:03.435Z,23.42
2022-10-09T11:30:00.531Z,12.20
2022-10-09T11:33:21.722Z,27.35
2022-10-09T11:36:15.011Z,20.45
2022-10-09T11:39:12.246Z,15.15
2022-10-09T11:41:59.167Z,18.67
2022-10-09T11:45:09.790Z,14.18
2022-10-09T11:48:08.212Z,14.43
2022-10-09T11:51:20.195Z,14.10
2022-10-09T11:54:15.368Z,14.00
2022-10-09T11:57:06.336Z,18.33
2022-10-09T12:00:04.310Z,31.88
2022-10-09T12:03:08.649Z,24.08
2022-10-09T12:06:15.088Z,26.45
2022-10-09T12:09:05.935Z,28.60
2022-10-09T12:12:31.751Z,22.20
2022-10-09T12:15:27.977Z,20.13
2022-10-09T12:18:23.775Z,16.42
2022-10-09T12:21:48.373Z,20.13
2022-10-09T12:24:41.160Z,17.35
2022-10-09T12:27:31.205Z,18.77
2022-10-09T12:30:22.266Z,19.83
2022-10-09T12:33:37.228Z,15.75
2022-10-09T12:36:28.537Z,19.98
2022-10-09T12:39:23.731Z,23.13
2022-10-09T12:42:19.525Z,27.65
2022-10-09T12:45:05.851Z,17.48
2022-10-09T12:47:52.909Z,16.50
2022-10-09T12:50:39.497Z,21.63
2022-10-09T12:53:27.859Z,18.63
2022-10-09T12:56:14.895Z,19.45
2022-10-09T12:59:10.403Z,17.70
2022-10-09T13:01:58.838Z,14.45
2022-10-09T13:05:00.574Z,17.40
2022-10-09T13:07:52.052Z,16.88
2022-10-09T13:10:38.094Z,17.48
2022-10-09T13:13:26.938Z,16.88
2022-10-09T13:16:12.923Z,14.77
2022-10-09T13:19:03.939Z,18.95
2022-10-09T13:22:22.313Z,18.05
2022-10-09T13:25:09.519Z,15.98
2022-10-09T13:27:56.553Z,16.75
2022-10-09T13:30:42.505Z,16.95
2022-10-09T13:33:28.465Z,58.65
2022-10-09T13:36:15.462Z,25.60
2022-10-09T13:39:01.627Z,31.00
2022-10-09T13:42:00.091Z,15.05
2022-10-09T13:44:46.594Z,12.00
2022-10-09T13:47:32.279Z,15.18
2022-10-09T13:50:19.771Z,13.75
2022-10-09T13:53:05.570Z,11.52
2022-10-09T13:55:59.984Z,11.88
2022-10-09T13:58:46.928Z,16.35
2022-10-09T14:01:33.287Z,24.30
2022-10-09T14:04:19.523Z,16.52
2022-10-09T14:07:05.604Z,14.25
2022-10-09T14:09:51.646Z,18.23
2022-10-09T14:12:37.409Z,9.95
2022-10-09T14:15:23.349Z,12.52
2022-10-09T14:18:09.560Z,13.90
2022-10-09T14:20:55.401Z,11.00
2022-10-09T14:23:41.351Z,19.63
2022-10-09T14:26:28.863Z,15.95
2022-10-09T14:29:14.637Z,11.60
2022-10-09T14:32:00.375Z,14.35
2022-10-09T14:34:50.326Z,17.70
2022-10-09T14:37:41.492Z,16.08
2022-10-09T14:40:27.783Z,14.32
2022-10-09T14:43:22.841Z,14.88
2022-10-09T14:46:12.600Z,15.48
2022-10-09T14:48:59.056Z,18.85
2022-10-09T14:51:45.206Z,17.27
2022-10-09T14:54:31.089Z,15.23
2022-10-09T14:57:18.982Z,13.73
2022-10-09T15:00:06.830Z,20.98
2022-10-09T15:02:54.172Z,23.88
2022-10-09T15:05:42.513Z,23.08
2022-10-09T15:08:33.254Z,19.35
2022-10-09T15:11:19.121Z,32.92
2022-10-09T15:14:12.306Z,34.90
2022-10-09T15:16:58.356Z,31.33
2022-10-09T15:19:44.236Z,29.63
2022-10-09T15:22:45.496Z,41.78
2022-10-09T15:25:31.834Z,37.00
2022-10-09T15:28:19.040Z,54.85
2022-10-09T15:31:06.753Z,61.70
2022-10-09T15:33:54.039Z,49.30
2022-10-09T15:36:40.423Z,51.47
2022-10-09T15:39:26.083Z,60.42
2022-10-09T15:42:11.975Z,48.83
2022-10-09T15:44:57.682Z,54.90
2022-10-09T15:47:51.395Z,58.20
2022-10-09T15:50:46.400Z,62.88
2022-10-09T15:53:32.057Z,49.78
2022-10-09T15:56:24.737Z,50.65
2022-10-09T15:59:12.706Z,36.17
2022-10-09T16:01:58.478Z,31.90
2022-10-09T16:04:49.702Z,53.58
2022-10-09T16:07:38.683Z,43.80
2022-10-09T16:11:00.734Z,46.10
2022-10-09T16:13:46.644Z,32.72
2022-10-09T16:16:32.804Z,30.73
2022-10-09T16:19:19.007Z,37.58
2022-10-09T16:22:06.041Z,46.67
2022-10-09T16:24:51.982Z,36.38
2022-10-09T16:27:37.686Z,39.60
2022-10-09T16:30:23.525Z,36.00
2022-10-09T16:33:12.908Z,31.88
2022-10-09T16:36:22.138Z,35.53
2022-10-09T16:39:07.934Z,33.95
2022-10-09T16:41:54.180Z,46.63
2022-10-09T16:44:40.142Z,51.78
2022-10-09T16:47:26.323Z,46.40
2022-10-09T16:50:12.411Z,56.45
2022-10-09T16:52:58.749Z,40.33
2022-10-09T16:55:49.859Z,47.75
2022-10-09T16:58:36.059Z,50.03
2022-10-09T17:01:22.672Z,42.50
2022-10-09T17:04:08.711Z,40.92
2022-10-09T17:06:54.888Z,37.17
2022-10-09T17:09:41.298Z,33.70
2022-10-09T17:12:27.418Z,39.40
2022-10-09T17:15:13.673Z,59.25
2022-10-09T17:17:59.762Z,46.75
2022-10-09T17:20:45.526Z,53.10
2022-10-09T17:23:31.491Z,42.80
2022-10-09T17:26:19.530Z,42.63
2022-10-09T17:29:06.068Z,43.88
2022-10-09T17:31:52.317Z,37.92
2022-10-09T17:34:43.109Z,52.58
2022-10-09T17:37:29.161Z,40.50
2022-10-09T17:40:16.100Z,49.17
2022-10-09T17:43:04.061Z,46.72
2022-10-09T17:46:01.677Z,50.88
2022-10-09T17:49:08.541Z,62.67
2022-10-09T17:51:54.825Z,49.63
2022-10-09T17:54:41.161Z,51.25
2022-10-09T17:57:27.579Z,43.90
2022-10-09T18:00:17.520Z,37.15
2022-10-09T18:03:21.642Z,41.03
2022-10-09T18:06:11.369Z,43.42
2022-10-09T18:08:58.067Z,46.15
2022-10-09T18:11:44.038Z,40.60
2022-10-09T18:14:30.088Z,49.88
2022-10-09T18:17:15.922Z,51.80
2022-10-09T18:20:01.722Z,51.80
2022-10-09T18:22:47.892Z,51.28
2022-10-09T18:25:34.922Z,47.90
2022-10-09T18:28:20.947Z,52.47
2022-10-09T18:31:08.424Z,45.80
2022-10-09T18:33:54.664Z,49.30
2022-10-09T18:36:40.943Z,59.85
2022-10-09T18:39:28.684Z,52.97
2022-10-09T18:42:14.866Z,53.10
2022-10-09T18:45:01.018Z,45.33
2022-10-09T18:47:46.877Z,47.63
2022-10-09T18:50:33.220Z,56.67
2022-10-09T18:53:19.211Z,46.60
2022-10-09T18:56:07.188Z,42.55
2022-10-09T18:58:53.542Z,41.10
2022-10-09T19:01:39.997Z,52.70
2022-10-09T19:04:25.737Z,35.97
2022-10-09T19:07:11.754Z,42.30
2022-10-09T19:09:57.783Z,37.25
2022-10-09T19:12:44.244Z,51.58
2022-10-09T19:15:30.479Z,34.65
2022-10-09T19:18:16.491Z,41.28
2022-10-09T19:21:03.097Z,33.63
2022-10-09T19:23:51.145Z,34.13
2022-10-09T19:26:41.054Z,36.45
2022-10-09T19:29:27.444Z,36.17
2022-10-09T19:32:14.131Z,30.67
2022-10-09T19:35:00.733Z,35.20
2022-10-09T19:37:47.404Z,45.35
2022-10-09T19:40:35.067Z,38.25
2022-10-09T19:43:24.374Z,42.45
2022-10-09T19:46:17.738Z,51.80
2022-10-09T19:49:04.721Z,35.47
2022-10-09T19:51:50.913Z,34.08
2022-10-09T19:54:37.877Z,33.25
2022-10-09T19:57:23.707Z,28.10
2022-10-09T20:00:11.652Z,36.13
2022-10-09T20:02:57.750Z,38.17
2022-10-09T20:05:43.766Z,33.22
2022-10-09T20:08:29.967Z,35.55
2022-10-09T20:11:16.250Z,32.28
2022-10-09T20:14:03.444Z,59.20
2022-10-09T20:16:49.171Z,40.15
2022-10-09T20:19:35.380Z,52.53
2022-10-09T20:22:21.450Z,40.28
2022-10-09T20:25:07.986Z,47.80
2022-10-09T20:27:54.038Z,39.50
2022-10-09T20:30:40.443Z,41.10
2022-10-09T20:33:28.286Z,51.35
2022-10-09T20:36:26.329Z,47.17
2022-10-09T20:39:15.408Z,76.95
2022-10-09T20:42:01.462Z,43.50
2022-10-09T20:44:49.653Z,34.13
2022-10-09T20:47:36.785Z,36.00
2022-10-09T20:50:22.494Z,30.10
2022-10-09T20:53:10.157Z,39.17
2022-10-09T20:56:01.155Z,27.60
2022-10-09T20:58:47.164Z,39.70
2022-10-09T21:01:33.353Z,35.00
2022-10-09T21:04:19.374Z,38.33
2022-10-09T21:07:05.431Z,28.00
2022-10-09T21:09:51.713Z,29.80
2022-10-09T21:12:37.948Z,27.08
2022-10-09T21:15:24.123Z,38.67
2022-10-09T21:18:10.658Z,40.92
2022-10-09T21:20:56.490Z,39.05
2022-10-09T21:23:42.384Z,34.08
2022-10-09T21:26:29.826Z,31.05
2022-10-09T21:29:15.635Z,41.67
2022-10-09T21:32:01.639Z,32.88
2022-10-09T21:34:47.602Z,31.42
2022-10-09T21:37:37.317Z,46.03
2022-10-09T21:40:23.942Z,29.10
2022-10-09T21:43:10.698Z,26.10
2022-10-09T21:45:56.687Z,28.27
2022-10-09T21:48:42.371Z,31.40
2022-10-09T21:51:28.870Z,27.13
2022-10-09T21:54:15.074Z,34.10
2022-10-09T21:57:01.231Z,35.47
2022-10-09T21:59:47.611Z,35.47
2022-10-09T22:02:33.398Z,37.70
2022-10-09T22:05:19.783Z,31.73
2022-10-09T22:08:05.956Z,32.67
2022-10-09T22:10:52.457Z,31.27
2022-10-09T22:13:38.602Z,33.60
2022-10-09T22:16:24.654Z,31.08
2022-10-09T22:19:10.550Z,39.92
2022-10-09T22:21:56.826Z,31.63
2022-10-09T22:24:43.425Z,29.65
2022-10-09T22:27:29.315Z,30.50
2022-10-09T22:30:15.157Z,32.05
2022-10-09T22:33:00.887Z,27.48
2022-10-09T22:35:46.578Z,29.30
2022-10-09T22:38:32.682Z,38.05
2022-10-09T22:41:20.503Z,28.83
2022-10-09T22:44:08.356Z,27.25
2022-10-09T22:46:54.346Z,31.05
2022-10-09T22:49:40.193Z,29.65
2022-10-09T22:52:26.784Z,25.67
2022-10-09T22:55:12.675Z,27.13
2022-10-09T22:57:58.339Z,29.52
2022-10-09T23:00:44.193Z,36.67
2022-10-09T23:03:29.951Z,27.85
2022-10-09T23:06:18.380Z,32.22
2022-10-09T23:09:07.027Z,24.52
2022-10-09T23:11:53.301Z,26.80
2022-10-09T23:14:39.289Z,24.05
2022-10-09T23:17:25.170Z,35.35
2022-10-09T23:20:11.043Z,23.27
2022-10-09T23:22:57.009Z,25.95
2022-10-09T23:25:42.955Z,27.48
2022-10-09T23:28:28.938Z,25.40
2022-10-09T23:31:14.902Z,22.52
2022-10-09T23:34:01.322Z,22.77
2022-10-09T23:36:47.166Z,26.10
2022-10-09T23:39:32.798Z,25.55
2022-10-09T23:42:18.382Z,24.88
2022-10-09T23:45:04.634Z,24.42
2022-10-09T23:47:51.030Z,24.00
2022-10-09T23:50:36.945Z,24.77
2022-10-09T23:53:24.479Z,34.53
2022-10-09T23:56:20.419Z,29.40
2022-10-09T23:59:07.066Z,36.13
